sensor_id;sensor_type;location;lat;lon;timestamp;P1;durP1;ratioP1;P2;durP2;ratioP2
25237;SDS011;13185;50.872;5.306;2022-09-01T00:02:13;1.85;;;0.70;;
25237;SDS011;13185;50.872;5.306;2022-09-01T00:04:42;1.35;;;0.82;;
25237;SDS011;13185;50.872;5.306;2022-09-01T00:07:10;4.90;;;0.90;;
25237;SDS011;13185;50.872;5.306;2022-09-01T00:09:37;3.47;;;1.10;;
25237;SDS011;13185;50.872;5.306;2022-09-01T00:12:04;3.10;;;0.90;;
25237;SDS011;13185;50.872;5.306;2022-09-01T00:14:32;4.35;;;0.90;;
25237;SDS011;13185;50.872;5.306;2022-09-01T00:17:01;1.63;;;0.82;;
25237;SDS011;13185;50.872;5.306;2022-09-01T00:19:29;2.70;;;0.93;;
25237;SDS011;13185;50.872;5.306;2022-09-01T00:21:57;3.03;;;0.93;;
25237;SDS011;13185;50.872;5.306;2022-09-01T00:24:23;2.20;;;0.82;;
25237;SDS011;13185;50.872;5.306;2022-09-01T00:26:50;2.58;;;0.90;;
25237;SDS011;13185;50.872;5.306;2022-09-01T00:29:16;4.38;;;0.90;;
25237;SDS011;13185;50.872;5.306;2022-09-01T00:31:41;2.28;;;0.93;;
25237;SDS011;13185;50.872;5.306;2022-09-01T00:34:08;4.80;;;1.02;;
25237;SDS011;13185;50.872;5.306;2022-09-01T00:36:33;1.83;;;1.25;;
25237;SDS011;13185;50.872;5.306;2022-09-01T00:38:59;2.50;;;0.90;;
25237;SDS011;13185;50.872;5.306;2022-09-01T00:41:26;2.55;;;1.00;;
25237;SDS011;13185;50.872;5.306;2022-09-01T00:43:55;4.18;;;0.75;;
25237;SDS011;13185;50.872;5.306;2022-09-01T00:46:33;1.63;;;0.90;;
25237;SDS011;13185;50.872;5.306;2022-09-01T00:49:08;3.90;;;1.10;;
25237;SDS011;13185;50.872;5.306;2022-09-01T00:51:39;2.97;;;1.02;;
25237;SDS011;13185;50.872;5.306;2022-09-01T00:54:10;2.72;;;0.73;;
25237;SDS011;13185;50.872;5.306;2022-09-01T00:56:39;1.48;;;0.88;;
25237;SDS011;13185;50.872;5.306;2022-09-01T00:59:06;6.38;;;1.42;;
25237;SDS011;13185;50.872;5.306;2022-09-01T01:01:33;3.25;;;0.90;;
25237;SDS011;13185;50.872;5.306;2022-09-01T01:04:01;3.92;;;1.08;;
25237;SDS011;13185;50.872;5.306;2022-09-01T01:06:30;2.10;;;1.05;;
25237;SDS011;13185;50.872;5.306;2022-09-01T01:08:57;3.67;;;0.80;;
25237;SDS011;13185;50.872;5.306;2022-09-01T01:11:26;2.08;;;1.20;;
25237;SDS011;13185;50.872;5.306;2022-09-01T01:14:01;1.85;;;1.10;;
25237;SDS011;13185;50.872;5.306;2022-09-01T01:16:40;2.30;;;0.82;;
25237;SDS011;13185;50.872;5.306;2022-09-01T01:19:10;5.30;;;1.10;;
25237;SDS011;13185;50.872;5.306;2022-09-01T01:22:04;3.55;;;1.40;;
25237;SDS011;13185;50.872;5.306;2022-09-01T01:24:52;2.42;;;1.08;;
25237;SDS011;13185;50.872;5.306;2022-09-01T01:27:20;3.63;;;1.17;;
25237;SDS011;13185;50.872;5.306;2022-09-01T01:29:47;5.03;;;1.20;;
25237;SDS011;13185;50.872;5.306;2022-09-01T01:32:14;4.18;;;1.08;;
25237;SDS011;13185;50.872;5.306;2022-09-01T01:34:40;2.38;;;1.30;;
25237;SDS011;13185;50.872;5.306;2022-09-01T01:37:10;1.88;;;1.10;;
25237;SDS011;13185;50.872;5.306;2022-09-01T01:39:39;3.65;;;1.67;;
25237;SDS011;13185;50.872;5.306;2022-09-01T01:42:07;2.70;;;1.55;;
25237;SDS011;13185;50.872;5.306;2022-09-01T01:44:34;2.15;;;1.20;;
25237;SDS011;13185;50.872;5.306;2022-09-01T01:47:03;4.85;;;1.40;;
25237;SDS011;13185;50.872;5.306;2022-09-01T01:49:33;4.40;;;0.95;;
25237;SDS011;13185;50.872;5.306;2022-09-01T01:52:00;4.10;;;0.90;;
25237;SDS011;13185;50.872;5.306;2022-09-01T01:54:28;3.22;;;1.10;;
25237;SDS011;13185;50.872;5.306;2022-09-01T01:56:57;3.05;;;0.90;;
25237;SDS011;13185;50.872;5.306;2022-09-01T01:59:24;5.85;;;1.38;;
25237;SDS011;13185;50.872;5.306;2022-09-01T02:01:51;3.70;;;1.20;;
25237;SDS011;13185;50.872;5.306;2022-09-01T02:04:19;2.85;;;1.40;;
25237;SDS011;13185;50.872;5.306;2022-09-01T02:06:46;2.40;;;1.23;;
25237;SDS011;13185;50.872;5.306;2022-09-01T02:09:14;2.17;;;0.95;;
25237;SDS011;13185;50.872;5.306;2022-09-01T02:11:41;4.25;;;1.10;;
25237;SDS011;13185;50.872;5.306;2022-09-01T02:14:10;10.88;;;2.08;;
25237;SDS011;13185;50.872;5.306;2022-09-01T02:16:38;5.70;;;1.13;;
25237;SDS011;13185;50.872;5.306;2022-09-01T02:19:05;3.90;;;1.38;;
25237;SDS011;13185;50.872;5.306;2022-09-01T02:21:34;7.32;;;2.03;;
25237;SDS011;13185;50.872;5.306;2022-09-01T02:24:01;1.42;;;0.93;;
25237;SDS011;13185;50.872;5.306;2022-09-01T02:26:33;3.47;;;1.33;;
25237;SDS011;13185;50.872;5.306;2022-09-01T02:29:13;2.92;;;1.17;;
25237;SDS011;13185;50.872;5.306;2022-09-01T02:31:44;2.42;;;1.30;;
25237;SDS011;13185;50.872;5.306;2022-09-01T02:34:11;1.70;;;1.40;;
25237;SDS011;13185;50.872;5.306;2022-09-01T02:36:39;4.93;;;1.30;;
25237;SDS011;13185;50.872;5.306;2022-09-01T02:39:09;3.85;;;1.60;;
25237;SDS011;13185;50.872;5.306;2022-09-01T02:41:35;5.20;;;1.50;;
25237;SDS011;13185;50.872;5.306;2022-09-01T02:44:02;3.72;;;1.42;;
25237;SDS011;13185;50.872;5.306;2022-09-01T02:46:40;5.00;;;1.48;;
25237;SDS011;13185;50.872;5.306;2022-09-01T02:49:08;3.17;;;1.25;;
25237;SDS011;13185;50.872;5.306;2022-09-01T02:51:43;2.70;;;1.10;;
25237;SDS011;13185;50.872;5.306;2022-09-01T02:54:11;1.83;;;1.10;;
25237;SDS011;13185;50.872;5.306;2022-09-01T02:56:42;3.65;;;1.30;;
25237;SDS011;13185;50.872;5.306;2022-09-01T02:59:15;2.17;;;1.30;;
25237;SDS011;13185;50.872;5.306;2022-09-01T03:01:47;3.90;;;1.15;;
25237;SDS011;13185;50.872;5.306;2022-09-01T03:04:14;2.10;;;1.55;;
25237;SDS011;13185;50.872;5.306;2022-09-01T03:06:41;2.88;;;1.27;;
25237;SDS011;13185;50.872;5.306;2022-09-01T03:09:09;2.53;;;1.27;;
25237;SDS011;13185;50.872;5.306;2022-09-01T03:11:39;4.15;;;1.65;;
25237;SDS011;13185;50.872;5.306;2022-09-01T03:14:12;2.67;;;1.63;;
25237;SDS011;13185;50.872;5.306;2022-09-01T03:16:38;2.72;;;1.40;;
25237;SDS011;13185;50.872;5.306;2022-09-01T03:19:05;4.43;;;1.48;;
25237;SDS011;13185;50.872;5.306;2022-09-01T03:21:33;3.28;;;1.60;;
25237;SDS011;13185;50.872;5.306;2022-09-01T03:24:00;2.60;;;1.75;;
25237;SDS011;13185;50.872;5.306;2022-09-01T03:26:28;4.65;;;1.40;;
25237;SDS011;13185;50.872;5.306;2022-09-01T03:28:55;3.38;;;1.40;;
25237;SDS011;13185;50.872;5.306;2022-09-01T03:31:21;2.60;;;1.65;;
25237;SDS011;13185;50.872;5.306;2022-09-01T03:33:51;4.50;;;1.88;;
25237;SDS011;13185;50.872;5.306;2022-09-01T03:36:29;3.40;;;1.60;;
25237;SDS011;13185;50.872;5.306;2022-09-01T03:38:55;5.30;;;2.28;;
25237;SDS011;13185;50.872;5.306;2022-09-01T03:41:22;2.83;;;1.52;;
25237;SDS011;13185;50.872;5.306;2022-09-01T03:43:50;3.03;;;1.70;;
25237;SDS011;13185;50.872;5.306;2022-09-01T03:46:19;4.82;;;1.42;;
25237;SDS011;13185;50.872;5.306;2022-09-01T03:48:47;3.75;;;1.83;;
25237;SDS011;13185;50.872;5.306;2022-09-01T03:51:15;3.97;;;2.00;;
25237;SDS011;13185;50.872;5.306;2022-09-01T03:53:41;4.72;;;1.42;;
25237;SDS011;13185;50.872;5.306;2022-09-01T03:56:07;6.82;;;1.70;;
25237;SDS011;13185;50.872;5.306;2022-09-01T03:58:33;3.75;;;1.60;;
25237;SDS011;13185;50.872;5.306;2022-09-01T04:01:00;5.65;;;2.15;;
25237;SDS011;13185;50.872;5.306;2022-09-01T04:03:28;2.75;;;1.60;;
25237;SDS011;13185;50.872;5.306;2022-09-01T04:05:58;4.38;;;1.40;;
25237;SDS011;13185;50.872;5.306;2022-09-01T04:08:25;3.78;;;1.73;;
25237;SDS011;13185;50.872;5.306;2022-09-01T04:10:57;3.55;;;1.98;;
25237;SDS011;13185;50.872;5.306;2022-09-01T04:13:33;6.82;;;1.63;;
25237;SDS011;13185;50.872;5.306;2022-09-01T04:16:01;6.15;;;1.80;;
25237;SDS011;13185;50.872;5.306;2022-09-01T04:18:27;2.90;;;1.52;;
25237;SDS011;13185;50.872;5.306;2022-09-01T04:20:56;5.32;;;1.50;;
25237;SDS011;13185;50.872;5.306;2022-09-01T04:23:27;5.95;;;1.60;;
25237;SDS011;13185;50.872;5.306;2022-09-01T04:26:00;4.00;;;1.42;;
25237;SDS011;13185;50.872;5.306;2022-09-01T04:28:44;4.90;;;1.80;;
25237;SDS011;13185;50.872;5.306;2022-09-01T04:31:20;3.78;;;1.70;;
25237;SDS011;13185;50.872;5.306;2022-09-01T04:33:49;4.43;;;1.67;;
25237;SDS011;13185;50.872;5.306;2022-09-01T04:36:19;6.63;;;1.95;;
25237;SDS011;13185;50.872;5.306;2022-09-01T04:38:54;4.20;;;1.80;;
25237;SDS011;13185;50.872;5.306;2022-09-01T04:41:24;2.85;;;1.50;;
25237;SDS011;13185;50.872;5.306;2022-09-01T04:43:55;6.55;;;1.88;;
25237;SDS011;13185;50.872;5.306;2022-09-01T04:46:33;2.92;;;2.17;;
25237;SDS011;13185;50.872;5.306;2022-09-01T04:49:03;2.67;;;1.40;;
25237;SDS011;13185;50.872;5.306;2022-09-01T04:51:30;6.43;;;2.45;;
25237;SDS011;13185;50.872;5.306;2022-09-01T04:53:56;6.55;;;2.03;;
25237;SDS011;13185;50.872;5.306;2022-09-01T04:56:22;5.82;;;1.67;;
25237;SDS011;13185;50.872;5.306;2022-09-01T04:59:03;4.18;;;2.03;;
25237;SDS011;13185;50.872;5.306;2022-09-01T05:01:31;4.82;;;2.05;;
25237;SDS011;13185;50.872;5.306;2022-09-01T05:04:20;4.75;;;2.13;;
25237;SDS011;13185;50.872;5.306;2022-09-01T05:06:52;9.73;;;1.95;;
25237;SDS011;13185;50.872;5.306;2022-09-01T05:09:22;9.43;;;1.88;;
25237;SDS011;13185;50.872;5.306;2022-09-01T05:12:21;9.02;;;2.40;;
25237;SDS011;13185;50.872;5.306;2022-09-01T05:14:47;3.13;;;1.80;;
25237;SDS011;13185;50.872;5.306;2022-09-01T05:17:16;11.77;;;3.08;;
25237;SDS011;13185;50.872;5.306;2022-09-01T05:19:43;6.10;;;2.17;;
25237;SDS011;13185;50.872;5.306;2022-09-01T05:22:12;7.97;;;2.08;;
25237;SDS011;13185;50.872;5.306;2022-09-01T05:24:41;11.57;;;2.35;;
25237;SDS011;13185;50.872;5.306;2022-09-01T05:27:08;2.95;;;1.70;;
25237;SDS011;13185;50.872;5.306;2022-09-01T05:29:35;4.35;;;1.92;;
25237;SDS011;13185;50.872;5.306;2022-09-01T05:32:04;5.20;;;2.03;;
25237;SDS011;13185;50.872;5.306;2022-09-01T05:34:35;5.50;;;2.30;;
25237;SDS011;13185;50.872;5.306;2022-09-01T05:37:03;6.72;;;2.10;;
25237;SDS011;13185;50.872;5.306;2022-09-01T05:39:31;6.22;;;2.25;;
25237;SDS011;13185;50.872;5.306;2022-09-01T05:41:58;4.32;;;2.25;;
25237;SDS011;13185;50.872;5.306;2022-09-01T05:44:25;7.45;;;2.35;;
25237;SDS011;13185;50.872;5.306;2022-09-01T05:46:53;7.30;;;2.05;;
25237;SDS011;13185;50.872;5.306;2022-09-01T05:49:19;8.90;;;2.60;;
25237;SDS011;13185;50.872;5.306;2022-09-01T05:51:48;7.63;;;2.17;;
25237;SDS011;13185;50.872;5.306;2022-09-01T05:54:18;7.35;;;2.00;;
25237;SDS011;13185;50.872;5.306;2022-09-01T05:56:47;7.05;;;2.15;;
25237;SDS011;13185;50.872;5.306;2022-09-01T05:59:17;11.15;;;2.33;;
25237;SDS011;13185;50.872;5.306;2022-09-01T06:01:44;8.18;;;2.25;;
25237;SDS011;13185;50.872;5.306;2022-09-01T06:04:12;6.90;;;3.10;;
25237;SDS011;13185;50.872;5.306;2022-09-01T06:06:39;7.07;;;2.20;;
25237;SDS011;13185;50.872;5.306;2022-09-01T06:09:10;5.22;;;2.60;;
25237;SDS011;13185;50.872;5.306;2022-09-01T06:11:38;5.20;;;2.53;;
25237;SDS011;13185;50.872;5.306;2022-09-01T06:14:05;4.90;;;3.00;;
25237;SDS011;13185;50.872;5.306;2022-09-01T06:16:35;3.28;;;2.38;;
25237;SDS011;13185;50.872;5.306;2022-09-01T06:19:02;4.60;;;2.20;;
25237;SDS011;13185;50.872;5.306;2022-09-01T06:21:29;4.85;;;2.25;;
25237;SDS011;13185;50.872;5.306;2022-09-01T06:23:56;7.97;;;2.53;;
25237;SDS011;13185;50.872;5.306;2022-09-01T06:26:25;5.00;;;2.40;;
25237;SDS011;13185;50.872;5.306;2022-09-01T06:28:53;6.63;;;2.13;;
25237;SDS011;13185;50.872;5.306;2022-09-01T06:31:25;4.35;;;2.13;;
25237;SDS011;13185;50.872;5.306;2022-09-01T06:33:53;4.57;;;2.30;;
25237;SDS011;13185;50.872;5.306;2022-09-01T06:36:20;7.20;;;2.75;;
25237;SDS011;13185;50.872;5.306;2022-09-01T06:38:48;4.25;;;3.35;;
25237;SDS011;13185;50.872;5.306;2022-09-01T06:41:16;4.70;;;2.15;;
25237;SDS011;13185;50.872;5.306;2022-09-01T06:43:47;5.15;;;2.47;;
25237;SDS011;13185;50.872;5.306;2022-09-01T06:46:17;4.18;;;2.03;;
25237;SDS011;13185;50.872;5.306;2022-09-01T06:48:44;7.57;;;2.58;;
25237;SDS011;13185;50.872;5.306;2022-09-01T06:51:12;6.82;;;2.10;;
25237;SDS011;13185;50.872;5.306;2022-09-01T06:53:41;5.15;;;2.10;;
25237;SDS011;13185;50.872;5.306;2022-09-01T06:56:10;2.88;;;1.90;;
25237;SDS011;13185;50.872;5.306;2022-09-01T06:58:41;3.65;;;2.08;;
25237;SDS011;13185;50.872;5.306;2022-09-01T07:01:11;3.95;;;2.13;;
25237;SDS011;13185;50.872;5.306;2022-09-01T07:03:40;4.97;;;2.85;;
25237;SDS011;13185;50.872;5.306;2022-09-01T07:06:23;7.57;;;2.10;;
25237;SDS011;13185;50.872;5.306;2022-09-01T07:09:10;2.63;;;1.80;;
25237;SDS011;13185;50.872;5.306;2022-09-01T07:11:38;5.88;;;1.83;;
25237;SDS011;13185;50.872;5.306;2022-09-01T07:14:05;3.92;;;1.90;;
25237;SDS011;13185;50.872;5.306;2022-09-01T07:16:32;9.23;;;2.00;;
25237;SDS011;13185;50.872;5.306;2022-09-01T07:19:05;4.97;;;2.13;;
25237;SDS011;13185;50.872;5.306;2022-09-01T07:21:39;4.93;;;1.83;;
25237;SDS011;13185;50.872;5.306;2022-09-01T07:24:08;7.68;;;2.00;;
25237;SDS011;13185;50.872;5.306;2022-09-01T07:26:35;3.35;;;1.70;;
25237;SDS011;13185;50.872;5.306;2022-09-01T07:29:02;2.42;;;1.60;;
25237;SDS011;13185;50.872;5.306;2022-09-01T07:31:37;3.10;;;1.42;;
25237;SDS011;13185;50.872;5.306;2022-09-01T07:34:06;4.05;;;1.50;;
25237;SDS011;13185;50.872;5.306;2022-09-01T07:36:41;5.63;;;1.20;;
25237;SDS011;13185;50.872;5.306;2022-09-01T07:39:09;5.40;;;1.60;;
25237;SDS011;13185;50.872;5.306;2022-09-01T07:41:36;5.07;;;1.83;;
25237;SDS011;13185;50.872;5.306;2022-09-01T07:44:31;13.02;;;2.20;;
25237;SDS011;13185;50.872;5.306;2022-09-01T07:47:28;5.20;;;2.03;;
25237;SDS011;13185;50.872;5.306;2022-09-01T07:49:54;3.35;;;1.65;;
25237;SDS011;13185;50.872;5.306;2022-09-01T07:52:20;4.55;;;1.45;;
25237;SDS011;13185;50.872;5.306;2022-09-01T07:54:51;2.80;;;1.45;;
25237;SDS011;13185;50.872;5.306;2022-09-01T07:57:17;2.13;;;1.42;;
25237;SDS011;13185;50.872;5.306;2022-09-01T07:59:43;2.15;;;1.50;;
25237;SDS011;13185;50.872;5.306;2022-09-01T08:02:14;1.55;;;1.35;;
25237;SDS011;13185;50.872;5.306;2022-09-01T08:04:43;2.63;;;1.50;;
25237;SDS011;13185;50.872;5.306;2022-09-01T08:07:09;4.75;;;1.48;;
25237;SDS011;13185;50.872;5.306;2022-09-01T08:09:35;4.65;;;1.25;;
25237;SDS011;13185;50.872;5.306;2022-09-01T08:12:03;3.53;;;1.25;;
25237;SDS011;13185;50.872;5.306;2022-09-01T08:14:32;3.80;;;1.75;;
25237;SDS011;13185;50.872;5.306;2022-09-01T08:16:58;7.70;;;1.50;;
25237;SDS011;13185;50.872;5.306;2022-09-01T08:19:24;5.60;;;1.50;;
25237;SDS011;13185;50.872;5.306;2022-09-01T08:22:03;2.00;;;1.00;;
25237;SDS011;13185;50.872;5.306;2022-09-01T08:24:51;3.67;;;1.85;;
25237;SDS011;13185;50.872;5.306;2022-09-01T08:27:18;5.60;;;1.58;;
25237;SDS011;13185;50.872;5.306;2022-09-01T08:29:44;5.65;;;2.47;;
25237;SDS011;13185;50.872;5.306;2022-09-01T08:32:09;2.97;;;1.65;;
25237;SDS011;13185;50.872;5.306;2022-09-01T08:34:35;6.90;;;1.80;;
25237;SDS011;13185;50.872;5.306;2022-09-01T08:37:01;4.20;;;1.45;;
25237;SDS011;13185;50.872;5.306;2022-09-01T08:39:27;4.57;;;1.23;;
25237;SDS011;13185;50.872;5.306;2022-09-01T08:41:58;3.70;;;1.48;;
25237;SDS011;13185;50.872;5.306;2022-09-01T08:44:35;3.95;;;1.58;;
25237;SDS011;13185;50.872;5.306;2022-09-01T08:47:12;4.10;;;1.67;;
25237;SDS011;13185;50.872;5.306;2022-09-01T08:49:41;4.60;;;1.40;;
25237;SDS011;13185;50.872;5.306;2022-09-01T08:52:36;1.50;;;1.10;;
25237;SDS011;13185;50.872;5.306;2022-09-01T08:57:50;3.17;;;1.40;;
25237;SDS011;13185;50.872;5.306;2022-09-01T09:00:21;3.90;;;1.35;;
25237;SDS011;13185;50.872;5.306;2022-09-01T09:06:14;5.40;;;1.38;;
25237;SDS011;13185;50.872;5.306;2022-09-01T09:08:44;2.20;;;1.20;;
25237;SDS011;13185;50.872;5.306;2022-09-01T09:14:14;1.58;;;1.15;;
25237;SDS011;13185;50.872;5.306;2022-09-01T09:16:46;1.98;;;1.10;;
25237;SDS011;13185;50.872;5.306;2022-09-01T09:22:14;1.70;;;0.85;;
25237;SDS011;13185;50.872;5.306;2022-09-01T09:27:45;3.20;;;1.27;;
25237;SDS011;13185;50.872;5.306;2022-09-01T09:30:20;3.10;;;1.08;;
25237;SDS011;13185;50.872;5.306;2022-09-01T09:32:52;1.88;;;0.88;;
25237;SDS011;13185;50.872;5.306;2022-09-01T09:37:52;1.23;;;0.73;;
25237;SDS011;13185;50.872;5.306;2022-09-01T09:40:24;3.13;;;1.00;;
25237;SDS011;13185;50.872;5.306;2022-09-01T09:45:29;4.53;;;1.35;;
25237;SDS011;13185;50.872;5.306;2022-09-01T09:47:55;5.60;;;0.90;;
25237;SDS011;13185;50.872;5.306;2022-09-01T09:50:23;2.05;;;1.00;;
25237;SDS011;13185;50.872;5.306;2022-09-01T09:52:52;2.78;;;0.90;;
25237;SDS011;13185;50.872;5.306;2022-09-01T09:55:35;4.80;;;1.55;;
25237;SDS011;13185;50.872;5.306;2022-09-01T09:58:13;1.80;;;0.90;;
25237;SDS011;13185;50.872;5.306;2022-09-01T10:00:38;2.67;;;1.05;;
25237;SDS011;13185;50.872;5.306;2022-09-01T10:03:06;3.35;;;1.83;;
25237;SDS011;13185;50.872;5.306;2022-09-01T10:08:08;3.53;;;0.82;;
25237;SDS011;13185;50.872;5.306;2022-09-01T10:10:40;4.50;;;0.85;;
25237;SDS011;13185;50.872;5.306;2022-09-01T10:13:15;2.35;;;0.70;;
25237;SDS011;13185;50.872;5.306;2022-09-01T10:15:46;2.80;;;0.70;;
25237;SDS011;13185;50.872;5.306;2022-09-01T10:18:21;4.93;;;1.13;;
25237;SDS011;13185;50.872;5.306;2022-09-01T10:20:52;4.57;;;0.90;;
25237;SDS011;13185;50.872;5.306;2022-09-01T10:23:36;3.30;;;0.80;;
25237;SDS011;13185;50.872;5.306;2022-09-01T10:26:10;2.42;;;0.90;;
25237;SDS011;13185;50.872;5.306;2022-09-01T10:28:43;3.40;;;0.88;;
25237;SDS011;13185;50.872;5.306;2022-09-01T10:31:17;4.07;;;0.80;;
25237;SDS011;13185;50.872;5.306;2022-09-01T10:33:44;5.32;;;0.85;;
25237;SDS011;13185;50.872;5.306;2022-09-01T10:36:09;2.03;;;0.90;;
25237;SDS011;13185;50.872;5.306;2022-09-01T10:38:37;1.55;;;1.00;;
25237;SDS011;13185;50.872;5.306;2022-09-01T10:41:02;2.42;;;1.17;;
25237;SDS011;13185;50.872;5.306;2022-09-01T10:46:40;3.65;;;1.00;;
25237;SDS011;13185;50.872;5.306;2022-09-01T10:49:01;1.95;;;0.93;;
25237;SDS011;13185;50.872;5.306;2022-09-01T10:51:57;2.45;;;0.82;;
25237;SDS011;13185;50.872;5.306;2022-09-01T11:11:14;4.22;;;0.70;;
25237;SDS011;13185;50.872;5.306;2022-09-01T11:13:54;0.70;;;0.70;;
25237;SDS011;13185;50.872;5.306;2022-09-01T11:16:26;1.23;;;0.50;;
25237;SDS011;13185;50.872;5.306;2022-09-01T11:21:45;1.10;;;0.60;;
25237;SDS011;13185;50.872;5.306;2022-09-01T11:27:02;2.15;;;0.90;;
25237;SDS011;13185;50.872;5.306;2022-09-01T11:32:21;2.25;;;0.65;;
25237;SDS011;13185;50.872;5.306;2022-09-01T11:34:50;2.33;;;0.60;;
25237;SDS011;13185;50.872;5.306;2022-09-01T11:37:19;2.30;;;0.65;;
25237;SDS011;13185;50.872;5.306;2022-09-01T11:42:18;2.78;;;0.68;;
25237;SDS011;13185;50.872;5.306;2022-09-01T11:45:04;3.20;;;0.68;;
25237;SDS011;13185;50.872;5.306;2022-09-01T11:47:38;1.60;;;0.55;;
25237;SDS011;13185;50.872;5.306;2022-09-01T11:50:19;2.53;;;0.80;;
25237;SDS011;13185;50.872;5.306;2022-09-01T11:52:55;3.97;;;0.82;;
25237;SDS011;13185;50.872;5.306;2022-09-01T11:55:36;3.22;;;0.73;;
25237;SDS011;13185;50.872;5.306;2022-09-01T11:58:11;4.35;;;0.85;;
25237;SDS011;13185;50.872;5.306;2022-09-01T12:00:39;1.38;;;0.52;;
25237;SDS011;13185;50.872;5.306;2022-09-01T12:03:25;0.95;;;0.40;;
25237;SDS011;13185;50.872;5.306;2022-09-01T12:06:04;3.55;;;0.90;;
25237;SDS011;13185;50.872;5.306;2022-09-01T12:08:36;4.25;;;0.80;;
25237;SDS011;13185;50.872;5.306;2022-09-01T12:11:09;1.85;;;0.60;;
25237;SDS011;13185;50.872;5.306;2022-09-01T12:13:37;1.90;;;0.70;;
25237;SDS011;13185;50.872;5.306;2022-09-01T12:16:05;3.00;;;0.40;;
25237;SDS011;13185;50.872;5.306;2022-09-01T12:18:33;4.85;;;0.70;;
25237;SDS011;13185;50.872;5.306;2022-09-01T12:21:15;3.20;;;0.80;;
25237;SDS011;13185;50.872;5.306;2022-09-01T12:26:42;0.75;;;0.60;;
25237;SDS011;13185;50.872;5.306;2022-09-01T12:29:08;2.45;;;0.60;;
25237;SDS011;13185;50.872;5.306;2022-09-01T12:31:35;3.55;;;0.47;;
25237;SDS011;13185;50.872;5.306;2022-09-01T12:34:01;1.48;;;0.65;;
25237;SDS011;13185;50.872;5.306;2022-09-01T12:36:32;3.58;;;0.70;;
25237;SDS011;13185;50.872;5.306;2022-09-01T12:41:46;1.73;;;0.47;;
25237;SDS011;13185;50.872;5.306;2022-09-01T12:47:06;1.52;;;0.40;;
25237;SDS011;13185;50.872;5.306;2022-09-01T12:54:53;2.22;;;1.05;;
25237;SDS011;13185;50.872;5.306;2022-09-01T12:57:33;4.63;;;1.23;;
25237;SDS011;13185;50.872;5.306;2022-09-01T13:02:35;3.17;;;0.60;;
25237;SDS011;13185;50.872;5.306;2022-09-01T13:05:29;2.45;;;0.55;;
25237;SDS011;13185;50.872;5.306;2022-09-01T13:08:05;2.58;;;0.95;;
25237;SDS011;13185;50.872;5.306;2022-09-01T13:10:40;3.55;;;0.60;;
25237;SDS011;13185;50.872;5.306;2022-09-01T13:13:11;1.90;;;0.60;;
25237;SDS011;13185;50.872;5.306;2022-09-01T13:15:40;2.70;;;0.60;;
25237;SDS011;13185;50.872;5.306;2022-09-01T13:18:09;2.17;;;0.70;;
25237;SDS011;13185;50.872;5.306;2022-09-01T13:20:34;3.53;;;0.60;;
25237;SDS011;13185;50.872;5.306;2022-09-01T13:23:00;2.67;;;0.70;;
25237;SDS011;13185;50.872;5.306;2022-09-01T13:25:26;3.03;;;0.50;;
25237;SDS011;13185;50.872;5.306;2022-09-01T13:27:52;0.95;;;0.38;;
25237;SDS011;13185;50.872;5.306;2022-09-01T13:30:19;2.70;;;0.60;;
25237;SDS011;13185;50.872;5.306;2022-09-01T13:32:47;2.90;;;0.63;;
25237;SDS011;13185;50.872;5.306;2022-09-01T13:35:15;0.98;;;0.60;;
25237;SDS011;13185;50.872;5.306;2022-09-01T13:37:45;3.33;;;0.57;;
25237;SDS011;13185;50.872;5.306;2022-09-01T13:40:11;10.18;;;0.90;;
25237;SDS011;13185;50.872;5.306;2022-09-01T13:42:48;2.28;;;0.65;;
25237;SDS011;13185;50.872;5.306;2022-09-01T13:45:16;5.55;;;0.80;;
25237;SDS011;13185;50.872;5.306;2022-09-01T13:47:44;1.45;;;0.60;;
25237;SDS011;13185;50.872;5.306;2022-09-01T13:50:11;1.42;;;0.90;;
25237;SDS011;13185;50.872;5.306;2022-09-01T13:52:39;1.55;;;0.40;;
25237;SDS011;13185;50.872;5.306;2022-09-01T13:55:06;1.08;;;0.60;;
25237;SDS011;13185;50.872;5.306;2022-09-01T13:57:34;3.80;;;0.70;;
25237;SDS011;13185;50.872;5.306;2022-09-01T13:59:59;1.25;;;0.68;;
25237;SDS011;13185;50.872;5.306;2022-09-01T14:02:25;1.92;;;0.73;;
25237;SDS011;13185;50.872;5.306;2022-09-01T14:04:50;3.88;;;0.90;;
25237;SDS011;13185;50.872;5.306;2022-09-01T14:07:16;1.60;;;0.47;;
25237;SDS011;13185;50.872;5.306;2022-09-01T14:09:43;3.28;;;0.70;;
25237;SDS011;13185;50.872;5.306;2022-09-01T14:12:09;1.85;;;0.60;;
25237;SDS011;13185;50.872;5.306;2022-09-01T14:14:35;2.80;;;0.90;;
25237;SDS011;13185;50.872;5.306;2022-09-01T14:17:00;1.15;;;0.80;;
25237;SDS011;13185;50.872;5.306;2022-09-01T14:19:27;3.78;;;0.70;;
25237;SDS011;13185;50.872;5.306;2022-09-01T14:21:53;1.27;;;0.55;;
25237;SDS011;13185;50.872;5.306;2022-09-01T14:24:18;5.57;;;0.68;;
25237;SDS011;13185;50.872;5.306;2022-09-01T14:26:45;6.22;;;0.88;;
25237;SDS011;13185;50.872;5.306;2022-09-01T14:29:11;5.28;;;0.90;;
25237;SDS011;13185;50.872;5.306;2022-09-01T14:31:36;0.95;;;0.75;;
25237;SDS011;13185;50.872;5.306;2022-09-01T14:34:02;3.70;;;0.80;;
25237;SDS011;13185;50.872;5.306;2022-09-01T14:36:28;2.05;;;0.80;;
25237;SDS011;13185;50.872;5.306;2022-09-01T14:38:55;2.60;;;0.90;;
25237;SDS011;13185;50.872;5.306;2022-09-01T14:41:21;1.33;;;0.57;;
25237;SDS011;13185;50.872;5.306;2022-09-01T14:43:49;3.20;;;0.85;;
25237;SDS011;13185;50.872;5.306;2022-09-01T14:46:16;5.07;;;0.73;;
25237;SDS011;13185;50.872;5.306;2022-09-01T14:48:43;2.67;;;0.70;;
25237;SDS011;13185;50.872;5.306;2022-09-01T14:51:16;3.05;;;0.70;;
25237;SDS011;13185;50.872;5.306;2022-09-01T14:53:44;1.88;;;0.60;;
25237;SDS011;13185;50.872;5.306;2022-09-01T14:56:09;1.73;;;0.90;;
25237;SDS011;13185;50.872;5.306;2022-09-01T14:58:35;3.05;;;0.80;;
25237;SDS011;13185;50.872;5.306;2022-09-01T15:01:00;1.48;;;1.23;;
25237;SDS011;13185;50.872;5.306;2022-09-01T15:03:26;1.50;;;0.70;;
25237;SDS011;13185;50.872;5.306;2022-09-01T15:05:52;0.80;;;0.57;;
25237;SDS011;13185;50.872;5.306;2022-09-01T15:08:18;1.88;;;1.10;;
25237;SDS011;13185;50.872;5.306;2022-09-01T15:10:44;4.88;;;0.80;;
25237;SDS011;13185;50.872;5.306;2022-09-01T15:13:10;4.32;;;0.60;;
25237;SDS011;13185;50.872;5.306;2022-09-01T15:15:36;2.88;;;0.90;;
25237;SDS011;13185;50.872;5.306;2022-09-01T15:18:02;2.95;;;0.90;;
25237;SDS011;13185;50.872;5.306;2022-09-01T15:20:27;1.45;;;0.88;;
25237;SDS011;13185;50.872;5.306;2022-09-01T15:25:42;4.45;;;1.00;;
25237;SDS011;13185;50.872;5.306;2022-09-01T15:28:08;1.42;;;1.00;;
25237;SDS011;13185;50.872;5.306;2022-09-01T15:30:34;3.47;;;0.85;;
25237;SDS011;13185;50.872;5.306;2022-09-01T15:33:00;1.75;;;0.90;;
25237;SDS011;13185;50.872;5.306;2022-09-01T15:35:26;2.90;;;0.90;;
25237;SDS011;13185;50.872;5.306;2022-09-01T15:37:53;1.35;;;0.70;;
25237;SDS011;13185;50.872;5.306;2022-09-01T15:40:19;0.82;;;0.70;;
25237;SDS011;13185;50.872;5.306;2022-09-01T15:42:44;3.28;;;0.95;;
25237;SDS011;13185;50.872;5.306;2022-09-01T15:45:12;6.28;;;1.00;;
25237;SDS011;13185;50.872;5.306;2022-09-01T15:47:40;1.45;;;0.90;;
25237;SDS011;13185;50.872;5.306;2022-09-01T15:50:07;4.88;;;1.02;;
25237;SDS011;13185;50.872;5.306;2022-09-01T15:52:37;2.42;;;0.90;;
25237;SDS011;13185;50.872;5.306;2022-09-01T15:55:14;2.95;;;0.80;;
25237;SDS011;13185;50.872;5.306;2022-09-01T15:57:41;2.83;;;1.17;;
25237;SDS011;13185;50.872;5.306;2022-09-01T16:00:06;4.90;;;1.20;;
25237;SDS011;13185;50.872;5.306;2022-09-01T16:02:37;2.50;;;1.00;;
25237;SDS011;13185;50.872;5.306;2022-09-01T16:05:02;1.98;;;1.00;;
25237;SDS011;13185;50.872;5.306;2022-09-01T16:07:29;4.80;;;1.48;;
25237;SDS011;13185;50.872;5.306;2022-09-01T16:09:55;2.58;;;1.48;;
25237;SDS011;13185;50.872;5.306;2022-09-01T16:12:22;1.27;;;0.85;;
25237;SDS011;13185;50.872;5.306;2022-09-01T16:14:51;2.83;;;1.02;;
25237;SDS011;13185;50.872;5.306;2022-09-01T16:17:21;4.32;;;0.88;;